Titusville, New Jersey
Current Conditions -  °F | °C
As of 5:53 PM on Thursday 23 Oct 2014 (Local Time) from KTTN Reporting Station
Overcast Overcast  
Wind Chill: 53°   Ceiling: 6000
Heat Index: 53°   Visibility: 10mi
Dew Point: 43°   Wind: 16mph
Humidity: 69%   Direction: 340°NNW
Pressure: 29.77"   Gusts: 28mph
Location:  40.31°N, 74.88°W
Report Text: KTTN 232153Z 34014G24KT 10SM FEW030 SCT044 OVC060 12/06 A2977 RMK AO2 SLP074 T01170061
Loading
Personal Weather Stations






























Interactive Weather Map
Tropical Storm Tracking
New forecast layout! Learn more

10-Day Weather Forecast

Advertisements
Track Severe Weather on mobile